createdAt,value
2017-03-30T00:00:57.503Z,20.95
2017-03-30T00:02:07.768Z,20.86
2017-03-30T00:03:17.741Z,20.88
2017-03-30T00:04:28.006Z,20.88
2017-03-30T00:05:38.302Z,20.86
2017-03-30T00:06:48.875Z,20.86
2017-03-30T00:07:59.145Z,20.88
2017-03-30T00:09:09.422Z,20.95
2017-03-30T00:10:19.702Z,20.9
2017-03-30T00:11:29.991Z,20.96
2017-03-30T00:12:40.210Z,20.93
2017-03-30T00:13:50.478Z,20.89
2017-03-30T00:15:00.745Z,20.85
2017-03-30T00:16:10.706Z,20.92
2017-03-30T00:17:20.667Z,20.96
2017-03-30T00:18:31.249Z,20.95
2017-03-30T00:19:41.518Z,20.92
2017-03-30T00:20:51.784Z,20.88
2017-03-30T00:22:02.057Z,21.01
2017-03-30T00:23:12.026Z,21.03
2017-03-30T00:24:22.556Z,20.92
2017-03-30T00:25:32.201Z,20.89
2017-03-30T00:26:42.475Z,20.95
2017-03-30T00:27:52.740Z,20.89
2017-03-30T00:29:02.707Z,20.98
2017-03-30T00:30:12.971Z,20.9
2017-03-30T00:31:23.240Z,20.89
2017-03-30T00:32:33.202Z,20.9
2017-03-30T00:33:43.477Z,20.89
2017-03-30T00:34:53.757Z,20.88
2017-03-30T00:36:04.338Z,20.95
2017-03-30T00:37:14.602Z,20.85
2017-03-30T00:38:24.866Z,20.89
2017-03-30T00:39:35.146Z,20.93
2017-03-30T00:40:45.421Z,20.89
2017-03-30T00:41:55.961Z,20.93
2017-03-30T00:43:05.915Z,20.88
2017-03-30T00:44:16.185Z,20.86
2017-03-30T00:45:26.147Z,20.89
2017-03-30T00:46:36.126Z,20.82
2017-03-30T00:47:46.348Z,20.83
2017-03-30T00:48:56.615Z,20.85
2017-03-30T00:50:06.890Z,20.86
2017-03-30T00:51:16.850Z,20.88
2017-03-30T00:52:27.129Z,20.9
2017-03-30T00:53:37.649Z,20.82
2017-03-30T00:54:47.931Z,20.88
2017-03-30T00:55:57.885Z,20.93
2017-03-30T00:57:08.153Z,20.86
2017-03-30T00:58:18.430Z,20.93
2017-03-30T00:59:28.949Z,20.83
2017-03-30T01:00:38.909Z,20.85
2017-03-30T01:01:48.869Z,20.86
2017-03-30T01:02:58.257Z,20.85
2017-03-30T01:04:08.523Z,20.95
2017-03-30T01:05:19.097Z,20.86
2017-03-30T01:06:29.381Z,20.88
2017-03-30T01:07:39.352Z,20.86
2017-03-30T01:08:49.362Z,20.9
2017-03-30T01:09:59.325Z,20.86
2017-03-30T01:11:09.843Z,20.89
2017-03-30T01:12:20.131Z,20.83
2017-03-30T01:13:30.410Z,20.83
2017-03-30T01:14:40.679Z,20.86
2017-03-30T01:15:50.961Z,20.83
2017-03-30T01:17:01.172Z,20.85
2017-03-30T01:18:11.138Z,20.82
2017-03-30T01:19:21.423Z,20.88
2017-03-30T01:20:31.706Z,20.85
2017-03-30T01:21:41.672Z,20.85
2017-03-30T01:22:52.238Z,20.85
2017-03-30T01:24:02.510Z,20.88
2017-03-30T01:25:12.790Z,20.86
2017-03-30T01:26:22.743Z,20.9
2017-03-30T01:27:32.700Z,20.83
2017-03-30T01:28:43.213Z,20.82
2017-03-30T01:29:53.471Z,20.74
2017-03-30T01:31:03.446Z,20.74
2017-03-30T01:32:13.723Z,20.75
2017-03-30T01:33:23.993Z,20.89
2017-03-30T01:34:34.262Z,20.89
2017-03-30T01:35:44.235Z,20.88
2017-03-30T01:36:54.517Z,20.86
2017-03-30T01:38:04.786Z,20.83
2017-03-30T01:39:14.742Z,20.83
2017-03-30T01:40:25.268Z,20.75
2017-03-30T01:41:35.569Z,20.73
2017-03-30T01:42:45.853Z,20.82
2017-03-30T01:43:55.816Z,20.74
2017-03-30T01:45:06.092Z,20.85
2017-03-30T01:46:16.611Z,20.78
2017-03-30T01:47:26.882Z,20.86
2017-03-30T01:48:36.839Z,20.83
2017-03-30T01:49:47.103Z,20.85
2017-03-30T01:50:57.382Z,20.9
2017-03-30T01:52:07.961Z,20.82
2017-03-30T01:53:18.249Z,20.85
2017-03-30T01:54:28.207Z,20.88
2017-03-30T01:55:38.481Z,20.89
2017-03-30T01:56:48.438Z,20.82
2017-03-30T01:57:58.717Z,20.8
2017-03-30T01:59:08.367Z,20.74
2017-03-30T02:00:18.641Z,20.75
2017-03-30T02:01:28.598Z,20.78
2017-03-30T02:02:38.564Z,20.75
2017-03-30T02:03:49.083Z,20.75
2017-03-30T02:04:59.039Z,20.83
2017-03-30T02:06:09.318Z,20.78
2017-03-30T02:07:19.591Z,20.78
2017-03-30T02:08:29.558Z,20.77
2017-03-30T02:09:39.456Z,20.74
2017-03-30T02:10:49.727Z,20.78
2017-03-30T02:11:59.994Z,20.75
2017-03-30T02:13:10.494Z,20.78
2017-03-30T02:14:20.764Z,20.8
2017-03-30T02:15:31.031Z,20.74
2017-03-30T02:16:41.305Z,20.78
2017-03-30T02:17:51.575Z,20.8
2017-03-30T02:19:01.546Z,20.8
2017-03-30T02:20:11.505Z,20.78
2017-03-30T02:21:22.025Z,20.75
2017-03-30T02:22:32.304Z,20.78
2017-03-30T02:23:42.675Z,20.78
2017-03-30T02:24:52.954Z,20.83
2017-03-30T02:26:03.233Z,20.75
2017-03-30T02:27:13.761Z,20.74
2017-03-30T02:28:24.027Z,20.77
2017-03-30T02:29:34.299Z,20.75
2017-03-30T02:30:43.951Z,20.78
2017-03-30T02:31:54.224Z,20.78
2017-03-30T02:33:04.741Z,20.75
2017-03-30T02:34:15.018Z,20.78
2017-03-30T02:35:25.288Z,20.77
2017-03-30T02:36:35.553Z,20.74
2017-03-30T02:37:45.824Z,20.74
2017-03-30T02:38:56.085Z,20.71
2017-03-30T02:40:06.082Z,20.75
2017-03-30T02:41:16.363Z,20.75
2017-03-30T02:42:26.641Z,20.75
2017-03-30T02:43:36.606Z,20.73
2017-03-30T02:44:47.139Z,20.77
2017-03-30T02:45:57.407Z,20.7
2017-03-30T02:47:07.686Z,20.75
2017-03-30T02:48:17.690Z,20.74
2017-03-30T02:49:27.957Z,20.73
2017-03-30T02:50:38.534Z,20.74
2017-03-30T02:51:48.804Z,20.82
2017-03-30T02:52:58.485Z,20.75
2017-03-30T02:54:08.768Z,20.71
2017-03-30T02:55:19.054Z,20.73
2017-03-30T02:56:29.306Z,20.73
2017-03-30T02:57:39.583Z,20.83
2017-03-30T02:58:49.540Z,20.78
2017-03-30T02:59:59.811Z,20.73
2017-03-30T03:01:10.079Z,20.78
2017-03-30T03:02:20.621Z,20.73
2017-03-30T03:03:30.895Z,20.75
2017-03-30T03:04:40.842Z,20.71
2017-03-30T03:05:50.810Z,20.75
2017-03-30T03:07:01.084Z,20.74
2017-03-30T03:08:11.672Z,20.71
2017-03-30T03:09:21.940Z,20.73
2017-03-30T03:10:31.915Z,20.68
2017-03-30T03:11:41.872Z,20.67
2017-03-30T03:12:51.834Z,20.68
2017-03-30T03:14:02.049Z,20.66
2017-03-30T03:15:12.319Z,20.71
2017-03-30T03:16:22.591Z,20.6
2017-03-30T03:17:32.861Z,20.7
2017-03-30T03:18:43.130Z,20.6
2017-03-30T03:19:53.670Z,20.73
2017-03-30T03:21:03.632Z,20.77
2017-03-30T03:22:13.591Z,20.74
2017-03-30T03:23:23.863Z,20.71
2017-03-30T03:24:34.132Z,20.78
2017-03-30T03:25:44.659Z,20.7
2017-03-30T03:26:54.930Z,20.78
2017-03-30T03:28:05.211Z,20.75
2017-03-30T03:29:15.483Z,20.77
2017-03-30T03:30:25.757Z,20.71
2017-03-30T03:31:35.968Z,20.78
2017-03-30T03:32:45.926Z,20.71
2017-03-30T03:33:56.196Z,20.74
2017-03-30T03:35:06.469Z,20.74
2017-03-30T03:36:16.427Z,20.71
2017-03-30T03:37:26.691Z,20.75
2017-03-30T03:38:36.977Z,20.73
2017-03-30T03:39:47.243Z,20.71
2017-03-30T03:40:57.516Z,20.66
2017-03-30T03:42:07.491Z,20.77
2017-03-30T03:43:17.394Z,20.64
2017-03-30T03:44:27.682Z,20.67
2017-03-30T03:45:37.953Z,20.64
2017-03-30T03:46:47.916Z,20.71
2017-03-30T03:47:57.875Z,20.68
2017-03-30T03:49:08.458Z,20.68
2017-03-30T03:50:18.420Z,20.64
2017-03-30T03:51:28.697Z,20.7
2017-03-30T03:52:38.971Z,20.66
2017-03-30T03:53:48.932Z,20.66
2017-03-30T03:54:59.457Z,20.7
2017-03-30T03:56:09.416Z,20.63
2017-03-30T03:57:19.692Z,20.66
2017-03-30T03:58:29.978Z,20.67
2017-03-30T03:59:39.960Z,20.7
2017-03-30T04:00:50.490Z,20.68
2017-03-30T04:02:00.450Z,20.67
2017-03-30T04:03:10.824Z,20.73
2017-03-30T04:04:20.778Z,20.66
2017-03-30T04:05:31.056Z,20.6
2017-03-30T04:06:41.581Z,20.67
2017-03-30T04:07:51.541Z,20.71
2017-03-30T04:09:01.502Z,20.71
2017-03-30T04:10:11.773Z,20.74
2017-03-30T04:11:22.046Z,20.74
2017-03-30T04:12:32.678Z,20.74
2017-03-30T04:13:42.957Z,20.71
2017-03-30T04:14:53.235Z,20.7
2017-03-30T04:16:03.507Z,20.66
2017-03-30T04:17:13.776Z,20.74
2017-03-30T04:18:23.982Z,20.68
2017-03-30T04:19:33.934Z,20.73
2017-03-30T04:20:44.212Z,20.71
2017-03-30T04:21:54.485Z,20.74
2017-03-30T04:23:04.774Z,20.73
2017-03-30T04:24:15.302Z,20.67
2017-03-30T04:25:25.587Z,20.78
2017-03-30T04:26:35.860Z,20.77
2017-03-30T04:27:46.128Z,20.77
2017-03-30T04:28:56.401Z,20.71
2017-03-30T04:30:06.611Z,20.75
2017-03-30T04:31:16.576Z,20.74
2017-03-30T04:32:26.536Z,20.71
2017-03-30T04:33:36.521Z,20.74
2017-03-30T04:34:46.789Z,20.6
2017-03-30T04:35:56.699Z,20.64
2017-03-30T04:37:06.977Z,20.77
2017-03-30T04:38:17.273Z,20.74
2017-03-30T04:39:27.548Z,20.73
2017-03-30T04:40:37.822Z,20.67
2017-03-30T04:41:48.396Z,20.6
2017-03-30T04:42:58.684Z,20.74
2017-03-30T04:44:08.958Z,20.71
2017-03-30T04:45:18.923Z,20.71
2017-03-30T04:46:29.201Z,20.68
2017-03-30T04:47:39.719Z,20.74
2017-03-30T04:48:49.994Z,20.74
2017-03-30T04:49:59.956Z,20.8
2017-03-30T04:51:10.235Z,20.78
2017-03-30T04:52:20.504Z,20.74
2017-03-30T04:53:30.777Z,20.74
2017-03-30T04:54:41.077Z,20.73
2017-03-30T04:55:51.345Z,20.75
2017-03-30T04:57:01.309Z,20.75
2017-03-30T04:58:11.267Z,20.7
2017-03-30T04:59:21.485Z,20.74
2017-03-30T05:00:31.449Z,20.77
2017-03-30T05:01:41.771Z,20.68
2017-03-30T05:02:52.032Z,20.7
2017-03-30T05:04:02.357Z,20.74
2017-03-30T05:05:13.179Z,20.7
2017-03-30T05:06:23.448Z,20.75
2017-03-30T05:07:33.418Z,20.74
2017-03-30T05:08:43.711Z,20.73
2017-03-30T05:09:53.699Z,20.75
2017-03-30T05:11:03.908Z,20.74
2017-03-30T05:12:14.184Z,20.8
2017-03-30T05:13:24.459Z,20.83
2017-03-30T05:14:34.426Z,20.74
2017-03-30T05:15:44.391Z,20.8
2017-03-30T05:16:54.909Z,20.67
2017-03-30T05:18:04.563Z,20.73
2017-03-30T05:19:14.527Z,20.74
2017-03-30T05:20:24.492Z,20.74
2017-03-30T05:21:34.763Z,20.7
2017-03-30T05:22:45.281Z,20.75
2017-03-30T05:23:55.236Z,20.75
2017-03-30T05:25:05.198Z,20.8
2017-03-30T05:26:15.162Z,20.7
2017-03-30T05:27:25.448Z,20.78
2017-03-30T05:28:35.980Z,20.77
2017-03-30T05:29:45.944Z,20.75
2017-03-30T05:30:56.214Z,20.75
2017-03-30T05:32:06.491Z,20.75
2017-03-30T05:33:16.773Z,20.8
2017-03-30T05:34:27.294Z,20.78
2017-03-30T05:35:37.577Z,20.73
2017-03-30T05:36:47.854Z,20.78
2017-03-30T05:37:58.143Z,20.75
2017-03-30T05:39:08.117Z,20.78
2017-03-30T05:40:18.707Z,20.8
2017-03-30T05:41:28.980Z,20.77
2017-03-30T05:42:39.261Z,20.77
2017-03-30T05:43:49.528Z,20.86
2017-03-30T05:44:59.806Z,20.77
2017-03-30T05:46:10.347Z,20.74
2017-03-30T05:47:20.381Z,20.85
2017-03-30T05:48:30.346Z,20.74
2017-03-30T05:49:40.323Z,20.75
2017-03-30T05:50:50.307Z,20.7
2017-03-30T05:52:00.540Z,20.71
2017-03-30T05:53:11.057Z,20.74
2017-03-30T05:54:21.330Z,20.75
2017-03-30T05:55:31.620Z,20.8
2017-03-30T05:56:41.898Z,20.75
2017-03-30T05:57:52.424Z,20.77
2017-03-30T05:59:02.617Z,20.74
2017-03-30T06:00:12.591Z,20.74
2017-03-30T06:01:22.875Z,20.73
2017-03-30T06:02:33.150Z,20.82
2017-03-30T06:03:43.720Z,20.77
2017-03-30T06:04:54.027Z,20.8
2017-03-30T06:06:04.294Z,20.78
2017-03-30T06:07:14.272Z,20.73
2017-03-30T06:08:24.579Z,20.77
2017-03-30T06:09:35.128Z,20.85
2017-03-30T06:10:45.439Z,20.85
2017-03-30T06:11:55.734Z,20.8
2017-03-30T06:13:06.047Z,20.77
2017-03-30T06:14:16.323Z,20.8
2017-03-30T06:15:26.865Z,20.78
2017-03-30T06:16:36.839Z,20.85
2017-03-30T06:17:47.138Z,20.83
2017-03-30T06:18:57.418Z,20.8
2017-03-30T06:20:07.702Z,20.92
2017-03-30T06:21:18.250Z,20.92
2017-03-30T06:22:28.555Z,20.86
2017-03-30T06:23:38.832Z,20.86
2017-03-30T06:24:49.144Z,20.92
2017-03-30T06:25:59.438Z,20.86
2017-03-30T06:27:10.041Z,20.88
2017-03-30T06:28:20.313Z,20.89
2017-03-30T06:29:30.290Z,20.93
2017-03-30T06:30:40.568Z,20.85
2017-03-30T06:31:51.442Z,20.85
2017-03-30T06:33:01.988Z,20.96
2017-03-30T06:34:11.953Z,20.93
2017-03-30T06:35:22.247Z,20.9
2017-03-30T06:36:32.575Z,20.96
2017-03-30T06:37:42.863Z,20.88
2017-03-30T06:38:53.137Z,20.96
2017-03-30T06:40:03.417Z,20.86
2017-03-30T06:41:13.439Z,20.88
2017-03-30T06:42:23.735Z,20.89
2017-03-30T06:43:34.026Z,20.88
2017-03-30T06:44:44.566Z,20.83
2017-03-30T06:45:54.862Z,20.89
2017-03-30T06:47:04.827Z,20.85
2017-03-30T06:48:15.118Z,20.93
2017-03-30T06:49:25.088Z,20.83
2017-03-30T06:50:35.349Z,20.9
2017-03-30T06:51:45.634Z,20.9
2017-03-30T06:52:55.929Z,20.95
2017-03-30T06:54:06.255Z,20.88
2017-03-30T06:55:16.550Z,20.89
2017-03-30T06:56:26.835Z,20.85
2017-03-30T06:57:37.122Z,20.9
2017-03-30T06:58:47.088Z,20.89
2017-03-30T06:59:57.088Z,20.92
2017-03-30T07:01:07.364Z,20.98
2017-03-30T07:02:17.915Z,20.86
2017-03-30T07:03:28.085Z,21.01
2017-03-30T07:04:38.370Z,20.88
2017-03-30T07:05:48.667Z,20.88
2017-03-30T07:06:58.957Z,20.96
2017-03-30T07:08:09.488Z,21.01
2017-03-30T07:09:19.787Z,20.96
2017-03-30T07:10:29.765Z,20.85
2017-03-30T07:11:40.090Z,20.88
2017-03-30T07:12:50.182Z,20.96
2017-03-30T07:14:00.723Z,21.03
2017-03-30T07:15:11.035Z,20.9
2017-03-30T07:16:21.331Z,20.89
2017-03-30T07:17:31.632Z,20.89
2017-03-30T07:18:41.600Z,20.96
2017-03-30T07:19:52.043Z,20.95
2017-03-30T07:21:02.054Z,20.92
2017-03-30T07:22:12.028Z,20.86
2017-03-30T07:23:22.315Z,21
2017-03-30T07:24:32.614Z,20.98
2017-03-30T07:25:42.902Z,20.95
2017-03-30T07:26:52.879Z,21.07
2017-03-30T07:28:03.184Z,21.05
2017-03-30T07:29:13.515Z,21.08
2017-03-30T07:30:23.819Z,21.04
2017-03-30T07:31:34.356Z,21.01
2017-03-30T07:32:44.641Z,21.05
2017-03-30T07:33:54.911Z,21.05
2017-03-30T07:35:04.912Z,21.08
2017-03-30T07:36:15.193Z,21.01
2017-03-30T07:37:25.114Z,21.07
2017-03-30T07:38:35.432Z,21.17
2017-03-30T07:39:45.397Z,21.14
2017-03-30T07:40:55.380Z,21.11
2017-03-30T07:42:05.677Z,21.14
2017-03-30T07:43:16.209Z,21.1
2017-03-30T07:44:26.489Z,21.2
2017-03-30T07:45:36.453Z,21.2
2017-03-30T07:46:46.757Z,21.2
2017-03-30T07:47:57.069Z,21.15
2017-03-30T07:49:06.992Z,21.17
2017-03-30T07:50:17.284Z,21.22
2017-03-30T07:51:27.575Z,21.23
2017-03-30T07:52:38.949Z,21.26
2017-03-30T07:53:50.533Z,21.23
2017-03-30T07:55:00.804Z,21.26
2017-03-30T07:56:11.166Z,21.3
2017-03-30T07:57:22.033Z,21.3
2017-03-30T07:58:32.321Z,21.32
2017-03-30T07:59:42.639Z,21.25
2017-03-30T08:00:52.866Z,21.29
2017-03-30T08:02:02.875Z,21.25
2017-03-30T08:03:13.176Z,21.23
2017-03-30T08:04:23.464Z,21.3
2017-03-30T08:05:33.749Z,21.25
2017-03-30T08:06:44.288Z,21.32
2017-03-30T08:07:54.584Z,21.33
2017-03-30T08:09:03.929Z,21.28
2017-03-30T08:10:13.909Z,21.37
2017-03-30T08:11:23.889Z,21.28
2017-03-30T08:12:34.421Z,21.33
2017-03-30T08:13:44.401Z,21.28
2017-03-30T08:14:54.712Z,21.35
2017-03-30T08:16:05.056Z,21.33
2017-03-30T08:17:15.343Z,21.38
2017-03-30T08:18:25.575Z,21.32
2017-03-30T08:19:35.540Z,21.4
2017-03-30T08:20:45.827Z,21.32
2017-03-30T08:21:56.124Z,21.29
2017-03-30T08:23:06.435Z,21.37
2017-03-30T08:24:16.681Z,21.33
2017-03-30T08:25:26.993Z,21.3
2017-03-30T08:26:37.301Z,21.4
2017-03-30T08:27:47.311Z,21.37
2017-03-30T08:28:57.305Z,21.33
2017-03-30T08:30:07.841Z,21.33
2017-03-30T08:31:17.811Z,21.44
2017-03-30T08:32:28.115Z,21.4
2017-03-30T08:33:38.400Z,21.43
2017-03-30T08:34:48.057Z,21.4
2017-03-30T08:35:58.632Z,21.38
2017-03-30T08:37:08.612Z,21.38
2017-03-30T08:38:18.921Z,21.45
2017-03-30T08:39:29.210Z,21.44
2017-03-30T08:40:39.193Z,21.41
2017-03-30T08:41:49.454Z,21.44
2017-03-30T08:42:59.424Z,21.37
2017-03-30T08:44:09.703Z,21.5
2017-03-30T08:45:20.007Z,21.43
2017-03-30T08:46:30.405Z,21.47
2017-03-30T08:47:40.319Z,21.45
2017-03-30T08:48:49.992Z,21.44
2017-03-30T08:50:00.314Z,21.38
2017-03-30T08:51:10.602Z,21.44
2017-03-30T08:52:20.902Z,21.38
2017-03-30T08:53:30.918Z,21.38
2017-03-30T08:54:41.230Z,21.38
2017-03-30T08:55:51.529Z,21.43
2017-03-30T08:57:01.817Z,21.38
2017-03-30T08:58:12.127Z,21.43
2017-03-30T08:59:22.690Z,21.51
2017-03-30T09:00:32.960Z,21.38
2017-03-30T09:01:43.256Z,21.43
2017-03-30T09:02:53.218Z,21.44
2017-03-30T09:04:03.503Z,21.43
2017-03-30T09:05:14.352Z,21.41
2017-03-30T09:06:24.650Z,21.47
2017-03-30T09:07:34.970Z,21.37
2017-03-30T09:08:45.155Z,21.44
2017-03-30T09:09:55.456Z,21.38
2017-03-30T09:11:06.025Z,21.35
2017-03-30T09:12:16.016Z,21.47
2017-03-30T09:13:26.327Z,21.43
2017-03-30T09:14:36.638Z,21.38
2017-03-30T09:15:46.951Z,21.44
2017-03-30T09:16:57.501Z,21.44
2017-03-30T09:18:07.783Z,21.5
2017-03-30T09:19:18.082Z,21.4
2017-03-30T09:20:28.380Z,21.41
2017-03-30T09:21:38.682Z,21.44
2017-03-30T09:22:49.227Z,21.41
2017-03-30T09:23:59.511Z,21.41
2017-03-30T09:25:09.802Z,21.38
2017-03-30T09:26:19.777Z,21.4
2017-03-30T09:27:29.761Z,21.4
2017-03-30T09:28:40.048Z,21.35
2017-03-30T09:29:50.328Z,21.38
2017-03-30T09:31:00.650Z,21.43
2017-03-30T09:32:10.936Z,21.41
2017-03-30T09:33:21.211Z,21.5
2017-03-30T09:34:31.464Z,21.48
2017-03-30T09:35:41.766Z,21.43
2017-03-30T09:36:52.059Z,21.45
2017-03-30T09:38:02.348Z,21.47
2017-03-30T09:39:12.661Z,21.54
2017-03-30T09:40:22.888Z,21.54
2017-03-30T09:41:33.180Z,21.54
2017-03-30T09:42:43.492Z,21.56
2017-03-30T09:43:53.763Z,21.56
2017-03-30T09:45:04.057Z,21.51
2017-03-30T09:46:14.611Z,21.51
2017-03-30T09:47:24.587Z,21.45
2017-03-30T09:48:34.551Z,21.51
2017-03-30T09:49:44.839Z,21.56
2017-03-30T09:50:55.155Z,21.53
2017-03-30T09:52:05.732Z,21.62
2017-03-30T09:53:16.074Z,21.51
2017-03-30T09:54:26.090Z,21.62
2017-03-30T09:55:36.367Z,21.53
2017-03-30T09:56:46.664Z,21.56
2017-03-30T09:57:56.937Z,21.58
2017-03-30T09:59:06.929Z,21.66
2017-03-30T10:00:17.233Z,21.58
2017-03-30T10:01:27.517Z,21.69
2017-03-30T10:02:37.533Z,21.65
2017-03-30T10:03:48.054Z,21.63
2017-03-30T10:04:58.064Z,21.66
2017-03-30T10:06:07.727Z,21.68
2017-03-30T10:07:18.269Z,21.62
2017-03-30T10:08:28.322Z,21.63
2017-03-30T10:09:38.851Z,21.77
2017-03-30T10:10:49.142Z,21.7
2017-03-30T10:11:59.453Z,21.69
2017-03-30T10:13:09.424Z,21.75
2017-03-30T10:14:19.705Z,21.75
2017-03-30T10:15:30.317Z,21.72
2017-03-30T10:16:40.319Z,21.83
2017-03-30T10:17:50.597Z,21.75
2017-03-30T10:19:00.873Z,21.8
2017-03-30T10:20:10.535Z,21.8
2017-03-30T10:21:20.763Z,21.8
2017-03-30T10:22:31.049Z,21.85
2017-03-30T10:23:41.389Z,21.96
2017-03-30T10:24:51.690Z,21.88
2017-03-30T10:26:01.980Z,21.96
2017-03-30T10:27:12.574Z,21.88
2017-03-30T10:28:22.577Z,22.04
2017-03-30T10:29:32.544Z,21.99
2017-03-30T10:30:42.832Z,22.07
2017-03-30T10:31:52.813Z,22.04
2017-03-30T10:33:03.412Z,22.03
2017-03-30T10:34:13.698Z,22.18
2017-03-30T10:35:23.975Z,22.15
2017-03-30T10:36:34.268Z,22.16
2017-03-30T10:37:44.560Z,22.1
2017-03-30T10:38:55.114Z,22.21
2017-03-30T10:40:05.440Z,22.18
2017-03-30T10:41:15.128Z,22.28
2017-03-30T10:42:24.797Z,22.16
2017-03-30T10:43:34.768Z,22.23
2017-03-30T10:44:45.303Z,22.14
2017-03-30T10:45:55.589Z,22.22
2017-03-30T10:47:05.873Z,22.25
2017-03-30T10:48:16.153Z,22.37
2017-03-30T10:49:26.439Z,22.34
2017-03-30T10:50:36.998Z,22.34
2017-03-30T10:51:46.996Z,22.34
2017-03-30T10:52:56.964Z,22.3
2017-03-30T10:54:07.259Z,22.31
2017-03-30T10:55:17.252Z,22.3
2017-03-30T10:56:27.844Z,22.33
2017-03-30T10:57:38.134Z,22.31
2017-03-30T10:58:48.421Z,22.33
2017-03-30T10:59:58.398Z,22.31
2017-03-30T11:01:08.698Z,22.3
2017-03-30T11:02:19.182Z,22.34
2017-03-30T11:03:29.191Z,22.37
2017-03-30T11:04:38.890Z,22.44
2017-03-30T11:05:49.171Z,22.43
2017-03-30T11:06:59.462Z,22.37
2017-03-30T11:08:10.008Z,22.43
2017-03-30T11:09:19.979Z,22.44
2017-03-30T11:10:29.671Z,22.4
2017-03-30T11:11:39.963Z,22.4
2017-03-30T11:12:50.254Z,22.4
2017-03-30T11:14:00.850Z,22.47
2017-03-30T11:15:11.138Z,22.4
2017-03-30T11:16:21.428Z,22.43
2017-03-30T11:17:31.433Z,22.46
2017-03-30T11:18:41.730Z,22.47
2017-03-30T11:19:52.254Z,22.49
2017-03-30T11:21:02.242Z,22.31
2017-03-30T11:22:12.549Z,22.46
2017-03-30T11:23:22.576Z,22.41
2017-03-30T11:24:32.883Z,22.38
2017-03-30T11:25:43.114Z,22.34
2017-03-30T11:26:53.427Z,22.44
2017-03-30T11:28:03.776Z,22.36
2017-03-30T11:29:14.055Z,22.37
2017-03-30T11:30:23.419Z,22.36
2017-03-30T11:31:33.691Z,22.44
2017-03-30T11:32:43.978Z,22.37
2017-03-30T11:33:54.267Z,22.49
2017-03-30T11:35:04.609Z,22.52
2017-03-30T11:36:14.921Z,22.59
2017-03-30T11:37:25.495Z,22.67
2017-03-30T11:38:35.162Z,22.68
2017-03-30T11:39:44.843Z,22.62
2017-03-30T11:40:55.345Z,22.73
2017-03-30T11:42:05.651Z,22.8
2017-03-30T11:43:16.201Z,22.78
2017-03-30T11:44:26.510Z,22.77
2017-03-30T11:45:36.491Z,22.78
2017-03-30T11:46:46.475Z,22.68
2017-03-30T11:47:56.390Z,22.63
2017-03-30T11:49:06.949Z,22.47
2017-03-30T11:50:17.262Z,22.58
2017-03-30T11:51:26.957Z,22.51
2017-03-30T11:52:37.268Z,22.56
2017-03-30T11:53:47.597Z,22.53
2017-03-30T11:54:57.818Z,22.59
2017-03-30T11:56:07.802Z,22.56
2017-03-30T11:57:18.093Z,22.59
2017-03-30T11:58:28.386Z,22.52
2017-03-30T11:59:38.361Z,22.55
2017-03-30T12:00:48.612Z,22.58
2017-03-30T12:01:58.281Z,22.51
2017-03-30T12:03:07.690Z,22.62
2017-03-30T12:04:17.981Z,22.55
2017-03-30T12:05:28.282Z,22.55
2017-03-30T12:06:38.558Z,22.52
2017-03-30T12:07:48.523Z,22.58
2017-03-30T12:08:58.822Z,22.55
2017-03-30T12:10:09.118Z,22.53
2017-03-30T12:11:19.408Z,22.59
2017-03-30T12:12:29.649Z,22.51
2017-03-30T12:13:39.941Z,22.59
2017-03-30T12:14:50.241Z,22.53
2017-03-30T12:16:00.536Z,22.55
2017-03-30T12:17:10.838Z,22.55
2017-03-30T12:18:21.389Z,22.52
2017-03-30T12:19:31.381Z,22.46
2017-03-30T12:20:41.683Z,22.46
2017-03-30T12:21:51.994Z,22.43
2017-03-30T12:23:01.970Z,22.46
2017-03-30T12:24:12.258Z,22.46
2017-03-30T12:25:22.537Z,22.51
2017-03-30T12:26:32.219Z,22.52
2017-03-30T12:27:42.199Z,22.43
2017-03-30T12:28:52.193Z,22.52
2017-03-30T12:30:02.431Z,22.51
2017-03-30T12:31:12.714Z,22.41
2017-03-30T12:32:23.006Z,22.51
2017-03-30T12:33:33.309Z,22.55
2017-03-30T12:34:43.590Z,22.49
2017-03-30T12:35:53.819Z,22.38
2017-03-30T12:37:04.105Z,22.46
2017-03-30T12:38:14.382Z,22.49
2017-03-30T12:39:24.693Z,22.51
2017-03-30T12:40:34.684Z,22.51
2017-03-30T12:41:44.676Z,22.52
2017-03-30T12:42:54.977Z,22.51
2017-03-30T12:44:05.264Z,22.52
2017-03-30T12:45:15.578Z,22.53
2017-03-30T12:46:25.553Z,22.58
2017-03-30T12:47:36.108Z,22.63
2017-03-30T12:48:46.403Z,22.58
2017-03-30T12:49:56.694Z,22.56
2017-03-30T12:51:06.371Z,22.49
2017-03-30T12:52:16.659Z,22.52
2017-03-30T12:53:27.211Z,22.59
2017-03-30T12:54:37.497Z,22.68
2017-03-30T12:55:47.786Z,22.68
2017-03-30T12:56:58.067Z,22.65
2017-03-30T12:58:08.348Z,22.62
2017-03-30T12:59:18.878Z,22.61
2017-03-30T13:00:29.161Z,22.65
2017-03-30T13:01:39.463Z,22.59
2017-03-30T13:02:49.444Z,22.51
2017-03-30T13:03:59.725Z,22.62
2017-03-30T13:05:10.271Z,22.65
2017-03-30T13:06:20.571Z,22.58
2017-03-30T13:07:30.861Z,22.52
2017-03-30T13:08:40.850Z,22.55
2017-03-30T13:09:50.851Z,22.55
2017-03-30T13:11:01.097Z,22.53
2017-03-30T13:12:11.132Z,22.51
2017-03-30T13:13:21.424Z,22.55
2017-03-30T13:14:31.715Z,22.52
2017-03-30T13:15:42.015Z,22.61
2017-03-30T13:16:52.551Z,22.65
2017-03-30T13:18:02.841Z,22.65
2017-03-30T13:19:13.145Z,22.52
2017-03-30T13:20:23.437Z,22.59
2017-03-30T13:21:33.404Z,22.62
2017-03-30T13:22:43.982Z,22.62
2017-03-30T13:23:54.261Z,22.63
2017-03-30T13:25:04.252Z,22.59
2017-03-30T13:26:14.536Z,22.68
2017-03-30T13:27:24.524Z,22.65
2017-03-30T13:28:35.064Z,22.7
2017-03-30T13:29:45.357Z,22.7
2017-03-30T13:30:55.657Z,22.62
2017-03-30T13:32:05.944Z,22.67
2017-03-30T13:33:15.626Z,22.7
2017-03-30T13:34:26.206Z,22.71
2017-03-30T13:35:36.497Z,22.63
2017-03-30T13:36:46.776Z,22.63
2017-03-30T13:37:56.762Z,22.68
2017-03-30T13:39:07.047Z,22.7
2017-03-30T13:40:17.589Z,22.74
2017-03-30T13:41:27.885Z,22.73
2017-03-30T13:42:37.850Z,22.71
2017-03-30T13:43:48.164Z,22.71
2017-03-30T13:44:58.461Z,22.62
2017-03-30T13:46:09.009Z,22.67
2017-03-30T13:47:19.299Z,22.63
2017-03-30T13:48:29.276Z,22.71
2017-03-30T13:49:39.256Z,22.61
2017-03-30T13:50:49.536Z,22.61
2017-03-30T13:51:59.766Z,22.7
2017-03-30T13:53:09.744Z,22.62
2017-03-30T13:54:19.726Z,22.62
2017-03-30T13:55:30.012Z,22.61
2017-03-30T13:56:40.156Z,22.65
2017-03-30T13:57:50.694Z,22.67
2017-03-30T13:59:00.898Z,22.71
2017-03-30T14:00:10.877Z,22.68
2017-03-30T14:01:20.851Z,22.73
2017-03-30T14:02:30.813Z,22.59
2017-03-30T14:03:41.397Z,22.67
2017-03-30T14:04:51.682Z,22.59
2017-03-30T14:06:01.964Z,22.65
2017-03-30T14:07:11.946Z,22.67
2017-03-30T14:08:22.235Z,22.73
2017-03-30T14:09:32.462Z,22.63
2017-03-30T14:10:42.429Z,22.55
2017-03-30T14:11:52.726Z,22.61
2017-03-30T14:13:03.050Z,22.61
2017-03-30T14:14:13.366Z,22.7
2017-03-30T14:15:23.912Z,22.62
2017-03-30T14:16:34.193Z,22.65
2017-03-30T14:17:44.180Z,22.63
2017-03-30T14:18:54.461Z,22.51
2017-03-30T14:20:04.754Z,22.61
2017-03-30T14:21:14.976Z,22.55
2017-03-30T14:22:24.975Z,22.58
2017-03-30T14:23:34.965Z,22.58
2017-03-30T14:24:45.541Z,22.59
2017-03-30T14:25:55.834Z,22.56
2017-03-30T14:27:05.746Z,22.59
2017-03-30T14:28:16.039Z,22.52
2017-03-30T14:29:26.325Z,22.56
2017-03-30T14:30:36.613Z,22.61
2017-03-30T14:31:46.915Z,22.53
2017-03-30T14:32:57.199Z,22.55
2017-03-30T14:34:07.192Z,22.52
2017-03-30T14:35:17.485Z,22.49
2017-03-30T14:36:27.777Z,22.56
2017-03-30T14:37:37.447Z,22.53
2017-03-30T14:38:48.041Z,22.59
2017-03-30T14:39:58.060Z,22.52
2017-03-30T14:41:08.361Z,22.65
2017-03-30T14:42:18.660Z,22.59
2017-03-30T14:43:28.965Z,22.62
2017-03-30T14:44:39.501Z,22.63
2017-03-30T14:45:49.478Z,22.65
2017-03-30T14:46:59.765Z,22.62
2017-03-30T14:48:10.048Z,22.63
2017-03-30T14:49:20.322Z,22.53
2017-03-30T14:50:30.275Z,22.51
2017-03-30T14:51:39.939Z,22.51
2017-03-30T14:52:50.231Z,22.56
2017-03-30T14:54:00.518Z,22.59
2017-03-30T14:55:10.198Z,22.62
2017-03-30T14:56:20.436Z,22.59
2017-03-30T14:57:30.732Z,22.59
2017-03-30T14:58:41.029Z,22.58
2017-03-30T14:59:51.313Z,22.61
2017-03-30T15:01:01.608Z,22.61
2017-03-30T15:02:12.147Z,22.63
2017-03-30T15:03:22.129Z,22.61
2017-03-30T15:04:32.413Z,22.63
2017-03-30T15:05:42.689Z,22.52
2017-03-30T15:06:52.649Z,22.63
2017-03-30T15:08:02.930Z,22.61